地図

経路データ

SID SEASON NUMBER BASIN SUBBASIN NAME ISO_TIME NATURE LAT LON WMO_WIND WMO_PRES WMO_AGENCY TRACK_TYPE DIST2LAND LANDFALL IFLAG USA_AGENCY USA_ATCF_ID USA_LAT USA_LON USA_RECORD USA_STATUS USA_WIND USA_PRES USA_SSHS USA_R34_NE USA_R34_SE USA_R34_SW USA_R34_NW USA_R50_NE USA_R50_SE USA_R50_SW USA_R50_NW USA_R64_NE USA_R64_SE USA_R64_SW USA_R64_NW USA_POCI USA_ROCI USA_RMW USA_EYE TOKYO_LAT TOKYO_LON TOKYO_GRADE TOKYO_WIND TOKYO_PRES TOKYO_R50_DIR TOKYO_R50_LONG TOKYO_R50_SHORT TOKYO_R30_DIR TOKYO_R30_LONG TOKYO_R30_SHORT TOKYO_LAND CMA_LAT CMA_LON CMA_CAT CMA_WIND CMA_PRES HKO_LAT HKO_LON HKO_CAT HKO_WIND HKO_PRES NEWDELHI_LAT NEWDELHI_LON NEWDELHI_GRADE NEWDELHI_WIND NEWDELHI_PRES NEWDELHI_CI NEWDELHI_DP NEWDELHI_POCI REUNION_LAT REUNION_LON REUNION_TYPE REUNION_WIND REUNION_PRES REUNION_TNUM REUNION_CI REUNION_RMW REUNION_R34_NE REUNION_R34_SE REUNION_R34_SW REUNION_R34_NW REUNION_R50_NE REUNION_R50_SE REUNION_R50_SW REUNION_R50_NW REUNION_R64_NE REUNION_R64_SE REUNION_R64_SW REUNION_R64_NW BOM_LAT BOM_LON BOM_TYPE BOM_WIND BOM_PRES BOM_TNUM BOM_CI BOM_RMW BOM_R34_NE BOM_R34_SE BOM_R34_SW BOM_R34_NW BOM_R50_NE BOM_R50_SE BOM_R50_SW BOM_R50_NW BOM_R64_NE BOM_R64_SE BOM_R64_SW BOM_R64_NW BOM_ROCI BOM_POCI BOM_EYE BOM_POS_METHOD BOM_PRES_METHOD NADI_LAT NADI_LON NADI_CAT NADI_WIND NADI_PRES WELLINGTON_LAT WELLINGTON_LON WELLINGTON_WIND WELLINGTON_PRES DS824_LAT DS824_LON DS824_STAGE DS824_WIND DS824_PRES TD9636_LAT TD9636_LON TD9636_STAGE TD9636_WIND TD9636_PRES TD9635_LAT TD9635_LON TD9635_WIND TD9635_PRES TD9635_ROCI NEUMANN_LAT NEUMANN_LON NEUMANN_CLASS NEUMANN_WIND NEUMANN_PRES MLC_LAT MLC_LON MLC_CLASS MLC_WIND MLC_PRES USA_GUST BOM_GUST BOM_GUST_PER REUNION_GUST REUNION_GUST_PER USA_SEAHGT USA_SEARAD_NE USA_SEARAD_SE USA_SEARAD_SW USA_SEARAD_NW STORM_SPEED STORM_DIR
1955267N20315 1955 76 NA NA NOT_NAMED 1955-09-23 12:00:00 TS 20.0000 -45.5000 30 hurdat_atl main 1825 1818 O_____________ hurdat_atl AL111955 20.0000 -45.5000 TD 30 -1 16 294
1955267N20315 1955 76 NA NA NOT_NAMED 1955-09-23 15:00:00 TS 20.3108 -46.2568 main 1820 1818 P_____________ AL111955 20.3108 -46.2568 TD 30 -1 15 293
1955267N20315 1955 76 NA NA NOT_NAMED 1955-09-23 18:00:00 TS 20.6000 -47.0000 30 hurdat_atl main 1820 1809 O_____________ hurdat_atl AL111955 20.6000 -47.0000 TD 30 -1 15 292
1955267N20315 1955 76 NA NA NOT_NAMED 1955-09-23 21:00:00 TS 20.8569 -47.7280 main 1819 1770 P_____________ AL111955 20.8569 -47.7280 TD 30 -1 15 290
1955267N20315 1955 76 NA NA NOT_NAMED 1955-09-24 00:00:00 TS 21.1000 -48.5000 30 hurdat_atl main 1770 1714 O_____________ hurdat_atl AL111955 21.1000 -48.5000 TD 30 -1 17 287
1955267N20315 1955 76 NA NA NOT_NAMED 1955-09-24 03:00:00 TS 21.3584 -49.4597 main 1714 1637 P_____________ AL111955 21.3584 -49.4597 TD 30 -1 18 287
1955267N20315 1955 76 NA NA NOT_NAMED 1955-09-24 06:00:00 TS 21.6000 -50.3000 30 hurdat_atl main 1637 1598 O_____________ hurdat_atl AL111955 21.6000 -50.3000 TD 30 -1 13 289
1955267N20315 1955 76 NA NA NOT_NAMED 1955-09-24 09:00:00 TS 21.7766 -50.7407 main 1600 1574 P_____________ AL111955 21.7766 -50.7407 TD 30 -1 8 302
1955267N20315 1955 76 NA NA NOT_NAMED 1955-09-24 12:00:00 TS 22.0000 -51.0000 30 hurdat_atl main 1574 1552 O_____________ hurdat_atl AL111955 22.0000 -51.0000 TD 30 -1 8 317
1955267N20315 1955 76 NA NA NOT_NAMED 1955-09-24 15:00:00 TS 22.3324 -51.3078 main 1552 1533 P_____________ AL111955 22.3324 -51.3078 TD 30 -1 10 325
1955267N20315 1955 76 NA NA NOT_NAMED 1955-09-24 18:00:00 TS 22.8000 -51.6000 30 hurdat_atl main 1536 1524 O_____________ hurdat_atl AL111955 22.8000 -51.6000 TD 30 -1 12 332
1955267N20315 1955 76 NA NA NOT_NAMED 1955-09-24 21:00:00 TS 23.3975 -51.9149 main 1527 1519 P_____________ AL111955 23.3975 -51.9149 TD 30 -1 14 337
1955267N20315 1955 76 NA NA NOT_NAMED 1955-09-25 00:00:00 TS 24.1000 -52.2000 30 hurdat_atl main 1526 1525 O_____________ hurdat_atl AL111955 24.1000 -52.2000 TD 30 -1 15 342
1955267N20315 1955 76 NA NA NOT_NAMED 1955-09-25 03:00:00 TS 24.8424 -52.4154 main 1539 1539 P_____________ AL111955 24.8424 -52.4154 TD 30 -1 16 346
1955267N20315 1955 76 NA NA NOT_NAMED 1955-09-25 06:00:00 TS 25.6000 -52.6000 30 hurdat_atl main 1561 1561 O_____________ hurdat_atl AL111955 25.6000 -52.6000 TD 30 -1 15 346
1955267N20315 1955 76 NA NA NOT_NAMED 1955-09-25 09:00:00 TS 26.3150 -52.8150 main 1583 1583 P_____________ AL111955 26.3150 -52.8150 TD 30 -1 15 346
1955267N20315 1955 76 NA NA NOT_NAMED 1955-09-25 12:00:00 TS 27.0000 -53.0000 30 hurdat_atl main 1608 1608 O_____________ hurdat_atl AL111955 27.0000 -53.0000 TD 30 -1 14 349
1955267N20315 1955 76 NA NA NOT_NAMED 1955-09-25 15:00:00 TS 27.6574 -53.1154 main 1645 1645 P_____________ AL111955 27.6574 -53.1154 TD 30 -1 13 352
1955267N20315 1955 76 NA NA NOT_NAMED 1955-09-25 18:00:00 TS 28.3000 -53.2000 30 hurdat_atl main 1678 1678 O_____________ hurdat_atl AL111955 28.3000 -53.2000 TD 30 -1 13 353
1955267N20315 1955 76 NA NA NOT_NAMED 1955-09-25 21:00:00 TS 28.9575 -53.3075 main 1721 1721 P_____________ AL111955 28.9575 -53.3075 TD 30 -1 13 352
1955267N20315 1955 76 NA NA NOT_NAMED 1955-09-26 00:00:00 TS 29.6000 -53.4000 30 hurdat_atl main 1758 1758 O_____________ hurdat_atl AL111955 29.6000 -53.4000 TD 30 -1 13 354
1955267N20315 1955 76 NA NA NOT_NAMED 1955-09-26 03:00:00 TS 30.2075 -53.4651 main 1796 1733 P_____________ AL111955 30.2075 -53.4651 TD 30 -1 12 356
1955267N20315 1955 76 NA NA NOT_NAMED 1955-09-26 06:00:00 TS 30.8000 -53.5000 30 hurdat_atl main 1733 1670 O_____________ hurdat_atl AL111955 30.8000 -53.5000 TD 30 -1 12 357
1955267N20315 1955 76 NA NA NOT_NAMED 1955-09-26 09:00:00 TS 31.4074 -53.5444 main 1670 1608 P_____________ AL111955 31.4074 -53.5444 TD 32 -1 12 1
1955267N20315 1955 76 NA NA NOT_NAMED 1955-09-26 12:00:00 TS 32.0000 -53.5000 35 hurdat_atl main 1608 1560 O_____________ hurdat_atl AL111955 32.0000 -53.5000 TS 35 0 12 8
1955267N20315 1955 76 NA NA NOT_NAMED 1955-09-26 15:00:00 TS 32.5568 -53.3614 main 1550 1502 P_____________ AL111955 32.5568 -53.3614 TS 37 0 12 21
1955267N20315 1955 76 NA NA NOT_NAMED 1955-09-26 18:00:00 TS 33.1000 -53.0000 40 hurdat_atl main 1502 1447 O_____________ hurdat_atl AL111955 33.1000 -53.0000 TS 40 0 14 38
1955267N20315 1955 76 NA NA NOT_NAMED 1955-09-26 21:00:00 TS 33.6423 -52.3619 main 1448 1386 P_____________ AL111955 33.6423 -52.3619 TS 40 0 17 49
1955267N20315 1955 76 NA NA NOT_NAMED 1955-09-27 00:00:00 TS 34.2000 -51.5000 40 hurdat_atl main 1387 1340 O_____________ hurdat_atl AL111955 34.2000 -51.5000 TS 40 0 19 53
1955267N20315 1955 76 NA NA NOT_NAMED 1955-09-27 03:00:00 TS 34.7616 -50.5723 main 1330 1281 P_____________ AL111955 34.7616 -50.5723 TS 40 0 20 54
1955267N20315 1955 76 NA NA NOT_NAMED 1955-09-27 06:00:00 TS 35.4000 -49.5000 40 hurdat_atl main 1283 1247 O_____________ hurdat_atl AL111955 35.4000 -49.5000 TS 40 0 23 57
1955267N20315 1955 76 NA NA NOT_NAMED 1955-09-27 09:00:00 TS 36.0296 -48.2094 main 1249 1190 P_____________ AL111955 36.0296 -48.2094 TS 40 0 26 52
1955267N20315 1955 76 NA NA NOT_NAMED 1955-09-27 12:00:00 ET 37.0000 -47.0000 40 hurdat_atl main 1183 1057 O_____________ hurdat_atl AL111955 37.0000 -47.0000 EX 40 -4 30 30
1955267N20315 1955 76 NA NA NOT_NAMED 1955-09-27 15:00:00 ET 38.5990 -46.3790 main 1047 920 P_____________ AL111955 38.5990 -46.3790 EX 42 -4 37 19
1955267N20315 1955 76 NA NA NOT_NAMED 1955-09-27 18:00:00 ET 40.5000 -45.5000 45 hurdat_atl main 916 894 O_____________ hurdat_atl AL111955 40.5000 -45.5000 EX 45 -4 43 31
1955267N20315 1955 76 NA NA NOT_NAMED 1955-09-27 21:00:00 ET 42.2976 -43.4153 main 906 906 P_____________ AL111955 42.2976 -43.4153 EX 45 -4 48 44
1955267N20315 1955 76 NA NA NOT_NAMED 1955-09-28 00:00:00 ET 44.0000 -41.0000 45 hurdat_atl main 975 975 O_____________ hurdat_atl AL111955 44.0000 -41.0000 EX 45 -4 44 43
1955267N20315 1955 76 NA NA NOT_NAMED 1955-09-28 03:00:00 ET 45.5305 -39.1567 main 1043 1043 P_____________ AL111955 45.5305 -39.1567 EX 45 -4 39 39
1955267N20315 1955 76 NA NA NOT_NAMED 1955-09-28 06:00:00 ET 47.0000 -37.5000 45 hurdat_atl main 1134 1134 O_____________ hurdat_atl AL111955 47.0000 -37.5000 EX 45 -4 37 38
1955267N20315 1955 76 NA NA NOT_NAMED 1955-09-28 09:00:00 ET 48.4585 -35.7692 main 1246 1246 P_____________ AL111955 48.4585 -35.7692 EX 42 -4 38 38
1955267N20315 1955 76 NA NA NOT_NAMED 1955-09-28 12:00:00 ET 50.0000 -34.0000 40 hurdat_atl main 1256 1156 O_____________ hurdat_atl AL111955 50.0000 -34.0000 EX 40 -4 40 36
1955267N20315 1955 76 NA NA NOT_NAMED 1955-09-28 15:00:00 ET 51.7080 -32.0895 main 1150 1078 P_____________ AL111955 51.7080 -32.0895 EX 37 -4 43 35
1955267N20315 1955 76 NA NA NOT_NAMED 1955-09-28 18:00:00 ET 53.5000 -30.0000 35 hurdat_atl main 1074 O_____________ hurdat_atl AL111955 53.5000 -30.0000 EX 35 -4 44 35

IBTrACS Databaseについて

本データベースは、米国NOAAが公開する1842年以降の世界の熱帯低気圧のベストトラックデータアーカイブInternational Best Track Archive for Climate Stewardship (IBTrACS)を、ウェブで閲覧しやすい形式に変換したものです。

最終更新日:2021-12-06